Current Weather

Rochelle Muni/Koritz Fld

Rochelle, Illinois (KRPJ)

Report from: Friday, April 19, 2024 3:55 AM CDT
Current time: Friday, April 19, 2024 4:09 AM CDT

Nearby weather – Weather history – Daily summaries
Weather forecast

Temperature4.3°C (39.7°F)
Wind chill0.7°C (33.2°F)
Dew point-1.6°C (29.1°F)
Winds 9 kts (4.6 m/s, 10.4 mph) Northwest (320°)
Visibility10 mi. (16.1 km)
Clouds Sky clear
Altimeter30.10 in.Hg (1019 mB)
Relative humidity65 %
Density altitude-1,417 ft. (-432 m)
Remarks Fully automated report
Automated weather observing station with precipitation discriminator
Flight conditions Visual Meteorological Conditions
Raw dataKRPJ 190855Z AUTO 32009KT 10SM CLR 04/M02 A3010 RMK AO2 T00431016
An error has occurred. This application may no longer respond until reloaded. Reload 🗙